sensor_id;sensor_type;location;lat;lon;timestamp;P1;durP1;ratioP1;P2;durP2;ratioP2
70078;SDS011;57451;52.496;13.456;2023-08-07T00:02:13;5.93;;;2.28;;
70078;SDS011;57451;52.496;13.456;2023-08-07T00:04:41;5.03;;;2.30;;
70078;SDS011;57451;52.496;13.456;2023-08-07T00:07:08;5.30;;;2.50;;
70078;SDS011;57451;52.496;13.456;2023-08-07T00:09:35;4.68;;;2.20;;
70078;SDS011;57451;52.496;13.456;2023-08-07T00:12:03;6.37;;;2.30;;
70078;SDS011;57451;52.496;13.456;2023-08-07T00:14:31;5.50;;;2.20;;
70078;SDS011;57451;52.496;13.456;2023-08-07T00:16:59;5.43;;;2.10;;
70078;SDS011;57451;52.496;13.456;2023-08-07T00:19:27;7.28;;;2.50;;
70078;SDS011;57451;52.496;13.456;2023-08-07T00:21:54;5.30;;;2.30;;
70078;SDS011;57451;52.496;13.456;2023-08-07T00:24:22;5.57;;;2.10;;
70078;SDS011;57451;52.496;13.456;2023-08-07T00:26:49;5.45;;;2.30;;
70078;SDS011;57451;52.496;13.456;2023-08-07T00:29:17;5.20;;;2.30;;
70078;SDS011;57451;52.496;13.456;2023-08-07T00:31:44;6.55;;;2.70;;
70078;SDS011;57451;52.496;13.456;2023-08-07T00:34:14;5.97;;;2.50;;
70078;SDS011;57451;52.496;13.456;2023-08-07T00:36:42;5.20;;;2.50;;
70078;SDS011;57451;52.496;13.456;2023-08-07T00:39:10;5.80;;;3.00;;
70078;SDS011;57451;52.496;13.456;2023-08-07T00:41:39;5.63;;;2.95;;
70078;SDS011;57451;52.496;13.456;2023-08-07T00:44:06;6.65;;;3.03;;
70078;SDS011;57451;52.496;13.456;2023-08-07T00:46:34;8.68;;;3.20;;
70078;SDS011;57451;52.496;13.456;2023-08-07T00:49:02;7.10;;;3.33;;
70078;SDS011;57451;52.496;13.456;2023-08-07T00:51:31;5.85;;;2.90;;
70078;SDS011;57451;52.496;13.456;2023-08-07T00:53:59;5.70;;;3.15;;
70078;SDS011;57451;52.496;13.456;2023-08-07T00:56:29;6.70;;;3.22;;
70078;SDS011;57451;52.496;13.456;2023-08-07T00:58:57;5.95;;;3.28;;
70078;SDS011;57451;52.496;13.456;2023-08-07T01:01:25;8.80;;;3.40;;
70078;SDS011;57451;52.496;13.456;2023-08-07T01:03:53;7.75;;;3.47;;
70078;SDS011;57451;52.496;13.456;2023-08-07T01:06:21;5.10;;;2.95;;
70078;SDS011;57451;52.496;13.456;2023-08-07T01:08:50;5.97;;;3.10;;
70078;SDS011;57451;52.496;13.456;2023-08-07T01:11:20;5.10;;;2.70;;
70078;SDS011;57451;52.496;13.456;2023-08-07T01:13:56;5.73;;;2.60;;
70078;SDS011;57451;52.496;13.456;2023-08-07T01:16:29;7.72;;;2.50;;
70078;SDS011;57451;52.496;13.456;2023-08-07T01:19:03;5.05;;;2.63;;
70078;SDS011;57451;52.496;13.456;2023-08-07T01:21:35;7.20;;;2.78;;
70078;SDS011;57451;52.496;13.456;2023-08-07T01:24:04;7.90;;;2.90;;
70078;SDS011;57451;52.496;13.456;2023-08-07T01:26:32;5.50;;;2.50;;
70078;SDS011;57451;52.496;13.456;2023-08-07T01:29:03;5.60;;;2.75;;
70078;SDS011;57451;52.496;13.456;2023-08-07T01:31:37;5.07;;;2.35;;
70078;SDS011;57451;52.496;13.456;2023-08-07T01:34:07;4.95;;;2.67;;
70078;SDS011;57451;52.496;13.456;2023-08-07T01:36:38;6.38;;;2.58;;
70078;SDS011;57451;52.496;13.456;2023-08-07T01:39:08;9.47;;;2.80;;
70078;SDS011;57451;52.496;13.456;2023-08-07T01:41:35;4.82;;;2.30;;
70078;SDS011;57451;52.496;13.456;2023-08-07T01:44:03;7.88;;;2.55;;
70078;SDS011;57451;52.496;13.456;2023-08-07T01:46:31;4.97;;;2.53;;
70078;SDS011;57451;52.496;13.456;2023-08-07T01:48:59;6.25;;;2.72;;
70078;SDS011;57451;52.496;13.456;2023-08-07T01:51:26;5.77;;;2.70;;
70078;SDS011;57451;52.496;13.456;2023-08-07T01:53:54;4.47;;;2.50;;
70078;SDS011;57451;52.496;13.456;2023-08-07T01:56:22;5.70;;;2.75;;
70078;SDS011;57451;52.496;13.456;2023-08-07T01:58:50;7.00;;;2.47;;
70078;SDS011;57451;52.496;13.456;2023-08-07T02:01:17;5.63;;;2.67;;
70078;SDS011;57451;52.496;13.456;2023-08-07T02:03:45;8.73;;;3.10;;
70078;SDS011;57451;52.496;13.456;2023-08-07T02:06:12;6.03;;;3.00;;
70078;SDS011;57451;52.496;13.456;2023-08-07T02:08:39;5.65;;;3.35;;
70078;SDS011;57451;52.496;13.456;2023-08-07T02:11:07;5.57;;;3.15;;
70078;SDS011;57451;52.496;13.456;2023-08-07T02:13:38;6.38;;;2.92;;
70078;SDS011;57451;52.496;13.456;2023-08-07T02:16:05;8.27;;;3.37;;
70078;SDS011;57451;52.496;13.456;2023-08-07T02:18:32;5.65;;;2.92;;
70078;SDS011;57451;52.496;13.456;2023-08-07T02:21:00;6.50;;;2.92;;
70078;SDS011;57451;52.496;13.456;2023-08-07T02:23:27;5.85;;;2.90;;
70078;SDS011;57451;52.496;13.456;2023-08-07T02:25:55;6.72;;;3.22;;
70078;SDS011;57451;52.496;13.456;2023-08-07T02:28:23;6.60;;;3.20;;
70078;SDS011;57451;52.496;13.456;2023-08-07T02:30:51;6.18;;;3.58;;
70078;SDS011;57451;52.496;13.456;2023-08-07T02:33:21;5.90;;;3.15;;
70078;SDS011;57451;52.496;13.456;2023-08-07T02:35:48;6.90;;;3.10;;
70078;SDS011;57451;52.496;13.456;2023-08-07T02:38:17;6.53;;;3.50;;
70078;SDS011;57451;52.496;13.456;2023-08-07T02:40:45;7.23;;;3.17;;
70078;SDS011;57451;52.496;13.456;2023-08-07T02:43:12;6.25;;;3.47;;
70078;SDS011;57451;52.496;13.456;2023-08-07T02:45:40;7.30;;;3.78;;
70078;SDS011;57451;52.496;13.456;2023-08-07T02:48:09;8.18;;;4.03;;
70078;SDS011;57451;52.496;13.456;2023-08-07T02:50:36;5.97;;;3.60;;
70078;SDS011;57451;52.496;13.456;2023-08-07T02:53:03;7.37;;;3.80;;
70078;SDS011;57451;52.496;13.456;2023-08-07T02:55:31;9.55;;;4.00;;
70078;SDS011;57451;52.496;13.456;2023-08-07T02:57:58;9.63;;;3.80;;
70078;SDS011;57451;52.496;13.456;2023-08-07T03:00:25;8.50;;;3.90;;
70078;SDS011;57451;52.496;13.456;2023-08-07T03:02:53;7.60;;;3.65;;
70078;SDS011;57451;52.496;13.456;2023-08-07T03:05:22;9.67;;;4.07;;
70078;SDS011;57451;52.496;13.456;2023-08-07T03:07:49;7.40;;;3.50;;
70078;SDS011;57451;52.496;13.456;2023-08-07T03:10:16;8.32;;;4.13;;
70078;SDS011;57451;52.496;13.456;2023-08-07T03:12:44;9.82;;;3.97;;
70078;SDS011;57451;52.496;13.456;2023-08-07T03:15:11;6.70;;;4.10;;
70078;SDS011;57451;52.496;13.456;2023-08-07T03:17:39;8.60;;;3.87;;
70078;SDS011;57451;52.496;13.456;2023-08-07T03:20:07;8.02;;;4.03;;
70078;SDS011;57451;52.496;13.456;2023-08-07T03:22:37;6.30;;;3.88;;
70078;SDS011;57451;52.496;13.456;2023-08-07T03:25:05;8.10;;;4.00;;
70078;SDS011;57451;52.496;13.456;2023-08-07T03:27:33;6.95;;;3.97;;
70078;SDS011;57451;52.496;13.456;2023-08-07T03:30:00;7.50;;;4.40;;
70078;SDS011;57451;52.496;13.456;2023-08-07T03:32:29;8.75;;;4.07;;
70078;SDS011;57451;52.496;13.456;2023-08-07T03:34:57;9.25;;;4.60;;
70078;SDS011;57451;52.496;13.456;2023-08-07T03:37:24;7.15;;;4.00;;
70078;SDS011;57451;52.496;13.456;2023-08-07T03:39:53;8.07;;;4.13;;
70078;SDS011;57451;52.496;13.456;2023-08-07T03:42:20;8.03;;;4.13;;
70078;SDS011;57451;52.496;13.456;2023-08-07T03:44:48;10.27;;;4.15;;
70078;SDS011;57451;52.496;13.456;2023-08-07T03:47:15;8.27;;;4.20;;
70078;SDS011;57451;52.496;13.456;2023-08-07T03:49:43;8.48;;;4.30;;
70078;SDS011;57451;52.496;13.456;2023-08-07T03:52:10;10.35;;;4.50;;
70078;SDS011;57451;52.496;13.456;2023-08-07T03:54:38;9.00;;;4.10;;
70078;SDS011;57451;52.496;13.456;2023-08-07T03:57:07;8.50;;;3.97;;
70078;SDS011;57451;52.496;13.456;2023-08-07T03:59:35;7.65;;;4.15;;
70078;SDS011;57451;52.496;13.456;2023-08-07T04:02:02;9.15;;;4.30;;
70078;SDS011;57451;52.496;13.456;2023-08-07T04:04:30;10.32;;;4.55;;
70078;SDS011;57451;52.496;13.456;2023-08-07T04:06:58;7.90;;;4.80;;
70078;SDS011;57451;52.496;13.456;2023-08-07T04:09:25;8.77;;;4.30;;
70078;SDS011;57451;52.496;13.456;2023-08-07T04:11:53;10.70;;;4.47;;
70078;SDS011;57451;52.496;13.456;2023-08-07T04:14:23;7.85;;;3.90;;
70078;SDS011;57451;52.496;13.456;2023-08-07T04:16:51;8.82;;;4.20;;
70078;SDS011;57451;52.496;13.456;2023-08-07T04:19:18;7.13;;;4.10;;
70078;SDS011;57451;52.496;13.456;2023-08-07T04:21:45;10.90;;;4.40;;
70078;SDS011;57451;52.496;13.456;2023-08-07T04:24:13;7.35;;;3.92;;
70078;SDS011;57451;52.496;13.456;2023-08-07T04:26:40;9.32;;;4.22;;
70078;SDS011;57451;52.496;13.456;2023-08-07T04:29:08;7.82;;;4.55;;
70078;SDS011;57451;52.496;13.456;2023-08-07T04:31:36;7.27;;;4.30;;
70078;SDS011;57451;52.496;13.456;2023-08-07T04:34:05;7.50;;;3.88;;
70078;SDS011;57451;52.496;13.456;2023-08-07T04:36:32;9.52;;;4.55;;
70078;SDS011;57451;52.496;13.456;2023-08-07T04:39:00;10.07;;;4.38;;
70078;SDS011;57451;52.496;13.456;2023-08-07T04:41:27;6.50;;;4.00;;
70078;SDS011;57451;52.496;13.456;2023-08-07T04:43:55;7.57;;;3.77;;
70078;SDS011;57451;52.496;13.456;2023-08-07T04:46:22;6.68;;;3.60;;
70078;SDS011;57451;52.496;13.456;2023-08-07T04:48:51;9.55;;;4.00;;
70078;SDS011;57451;52.496;13.456;2023-08-07T04:51:19;7.05;;;3.92;;
70078;SDS011;57451;52.496;13.456;2023-08-07T04:53:46;8.38;;;4.13;;
70078;SDS011;57451;52.496;13.456;2023-08-07T04:56:17;6.60;;;3.97;;
70078;SDS011;57451;52.496;13.456;2023-08-07T04:58:44;7.78;;;3.72;;
70078;SDS011;57451;52.496;13.456;2023-08-07T05:01:12;7.60;;;3.78;;
70078;SDS011;57451;52.496;13.456;2023-08-07T05:03:39;7.50;;;3.60;;
70078;SDS011;57451;52.496;13.456;2023-08-07T05:06:08;5.72;;;3.50;;
70078;SDS011;57451;52.496;13.456;2023-08-07T05:08:36;7.30;;;3.20;;
70078;SDS011;57451;52.496;13.456;2023-08-07T05:11:03;6.38;;;3.80;;
70078;SDS011;57451;52.496;13.456;2023-08-07T05:13:31;6.18;;;3.20;;
70078;SDS011;57451;52.496;13.456;2023-08-07T05:15:58;6.10;;;3.38;;
70078;SDS011;57451;52.496;13.456;2023-08-07T05:18:25;7.03;;;3.35;;
70078;SDS011;57451;52.496;13.456;2023-08-07T05:20:53;7.67;;;3.27;;
70078;SDS011;57451;52.496;13.456;2023-08-07T05:23:21;5.95;;;3.22;;
70078;SDS011;57451;52.496;13.456;2023-08-07T05:25:49;6.80;;;3.17;;
70078;SDS011;57451;52.496;13.456;2023-08-07T05:28:16;7.03;;;3.35;;
70078;SDS011;57451;52.496;13.456;2023-08-07T05:30:44;7.20;;;3.00;;
70078;SDS011;57451;52.496;13.456;2023-08-07T05:33:11;7.47;;;2.93;;
70078;SDS011;57451;52.496;13.456;2023-08-07T05:35:41;6.13;;;2.90;;
70078;SDS011;57451;52.496;13.456;2023-08-07T05:38:09;6.20;;;3.33;;
70078;SDS011;57451;52.496;13.456;2023-08-07T05:40:38;6.78;;;3.30;;
70078;SDS011;57451;52.496;13.456;2023-08-07T05:43:06;7.32;;;3.25;;
70078;SDS011;57451;52.496;13.456;2023-08-07T05:45:33;6.70;;;3.37;;
70078;SDS011;57451;52.496;13.456;2023-08-07T05:48:01;5.25;;;3.20;;
70078;SDS011;57451;52.496;13.456;2023-08-07T05:50:28;6.03;;;2.90;;
70078;SDS011;57451;52.496;13.456;2023-08-07T05:52:56;5.65;;;3.10;;
70078;SDS011;57451;52.496;13.456;2023-08-07T05:55:23;8.30;;;3.15;;
70078;SDS011;57451;52.496;13.456;2023-08-07T05:57:52;6.83;;;3.03;;
70078;SDS011;57451;52.496;13.456;2023-08-07T06:00:19;7.63;;;2.95;;
70078;SDS011;57451;52.496;13.456;2023-08-07T06:02:47;6.57;;;3.20;;
70078;SDS011;57451;52.496;13.456;2023-08-07T06:05:14;7.35;;;3.10;;
70078;SDS011;57451;52.496;13.456;2023-08-07T06:07:43;7.60;;;3.33;;
70078;SDS011;57451;52.496;13.456;2023-08-07T06:10:10;8.13;;;3.10;;
70078;SDS011;57451;52.496;13.456;2023-08-07T06:12:37;6.53;;;3.30;;
70078;SDS011;57451;52.496;13.456;2023-08-07T06:15:06;7.13;;;2.83;;
70078;SDS011;57451;52.496;13.456;2023-08-07T06:17:35;5.82;;;2.80;;
70078;SDS011;57451;52.496;13.456;2023-08-07T06:20:02;8.70;;;3.20;;
70078;SDS011;57451;52.496;13.456;2023-08-07T06:22:31;5.70;;;3.30;;
70078;SDS011;57451;52.496;13.456;2023-08-07T06:24:59;10.00;;;2.92;;
70078;SDS011;57451;52.496;13.456;2023-08-07T06:27:26;4.47;;;2.53;;
70078;SDS011;57451;52.496;13.456;2023-08-07T06:29:54;5.38;;;2.55;;
70078;SDS011;57451;52.496;13.456;2023-08-07T06:32:24;5.85;;;2.63;;
70078;SDS011;57451;52.496;13.456;2023-08-07T06:34:52;7.00;;;2.87;;
70078;SDS011;57451;52.496;13.456;2023-08-07T06:37:19;7.65;;;2.60;;
70078;SDS011;57451;52.496;13.456;2023-08-07T06:39:47;5.65;;;2.70;;
70078;SDS011;57451;52.496;13.456;2023-08-07T06:42:15;7.38;;;2.63;;
70078;SDS011;57451;52.496;13.456;2023-08-07T06:44:44;6.40;;;2.50;;
70078;SDS011;57451;52.496;13.456;2023-08-07T06:47:11;5.53;;;2.37;;
70078;SDS011;57451;52.496;13.456;2023-08-07T06:49:40;5.32;;;2.25;;
70078;SDS011;57451;52.496;13.456;2023-08-07T06:52:07;6.50;;;2.20;;
70078;SDS011;57451;52.496;13.456;2023-08-07T06:54:34;4.75;;;2.45;;
70078;SDS011;57451;52.496;13.456;2023-08-07T06:57:02;4.90;;;2.08;;
70078;SDS011;57451;52.496;13.456;2023-08-07T06:59:30;5.37;;;2.17;;
70078;SDS011;57451;52.496;13.456;2023-08-07T07:01:57;5.13;;;2.20;;
70078;SDS011;57451;52.496;13.456;2023-08-07T07:04:25;5.10;;;2.40;;
70078;SDS011;57451;52.496;13.456;2023-08-07T07:06:54;6.22;;;2.40;;
70078;SDS011;57451;52.496;13.456;2023-08-07T07:09:21;5.28;;;2.20;;
70078;SDS011;57451;52.496;13.456;2023-08-07T07:11:48;4.80;;;2.17;;
70078;SDS011;57451;52.496;13.456;2023-08-07T07:14:16;5.05;;;2.03;;
70078;SDS011;57451;52.496;13.456;2023-08-07T07:16:43;4.60;;;2.30;;
70078;SDS011;57451;52.496;13.456;2023-08-07T07:19:10;5.13;;;2.35;;
70078;SDS011;57451;52.496;13.456;2023-08-07T07:21:38;6.20;;;2.15;;
70078;SDS011;57451;52.496;13.456;2023-08-07T07:24:06;6.07;;;1.90;;
70078;SDS011;57451;52.496;13.456;2023-08-07T07:26:34;4.82;;;2.08;;
70078;SDS011;57451;52.496;13.456;2023-08-07T07:29:01;4.70;;;2.00;;
70078;SDS011;57451;52.496;13.456;2023-08-07T07:31:30;5.57;;;1.98;;
70078;SDS011;57451;52.496;13.456;2023-08-07T07:33:57;7.32;;;2.30;;
70078;SDS011;57451;52.496;13.456;2023-08-07T07:36:25;5.03;;;2.10;;
70078;SDS011;57451;52.496;13.456;2023-08-07T07:38:52;5.18;;;1.90;;
70078;SDS011;57451;52.496;13.456;2023-08-07T07:41:21;5.70;;;2.10;;
70078;SDS011;57451;52.496;13.456;2023-08-07T07:43:49;5.55;;;2.10;;
70078;SDS011;57451;52.496;13.456;2023-08-07T07:46:17;5.05;;;2.00;;
70078;SDS011;57451;52.496;13.456;2023-08-07T07:48:44;5.23;;;1.97;;
70078;SDS011;57451;52.496;13.456;2023-08-07T07:51:11;5.90;;;2.00;;
70078;SDS011;57451;52.496;13.456;2023-08-07T07:53:39;3.88;;;1.75;;
70078;SDS011;57451;52.496;13.456;2023-08-07T07:56:07;5.15;;;2.00;;
70078;SDS011;57451;52.496;13.456;2023-08-07T07:58:35;6.20;;;1.95;;
70078;SDS011;57451;52.496;13.456;2023-08-07T08:01:03;3.90;;;1.80;;
70078;SDS011;57451;52.496;13.456;2023-08-07T08:03:30;3.80;;;1.70;;
70078;SDS011;57451;52.496;13.456;2023-08-07T08:05:58;4.40;;;2.00;;
70078;SDS011;57451;52.496;13.456;2023-08-07T08:08:25;5.32;;;2.13;;
70078;SDS011;57451;52.496;13.456;2023-08-07T08:10:54;4.45;;;1.90;;
70078;SDS011;57451;52.496;13.456;2023-08-07T08:13:22;5.40;;;2.00;;
70078;SDS011;57451;52.496;13.456;2023-08-07T08:15:52;5.68;;;2.10;;
70078;SDS011;57451;52.496;13.456;2023-08-07T08:18:19;4.75;;;2.25;;
70078;SDS011;57451;52.496;13.456;2023-08-07T08:20:46;5.35;;;2.22;;
70078;SDS011;57451;52.496;13.456;2023-08-07T08:23:14;5.72;;;2.28;;
70078;SDS011;57451;52.496;13.456;2023-08-07T08:25:41;4.37;;;1.90;;
70078;SDS011;57451;52.496;13.456;2023-08-07T08:28:08;5.03;;;2.00;;
70078;SDS011;57451;52.496;13.456;2023-08-07T08:30:36;4.47;;;2.20;;
70078;SDS011;57451;52.496;13.456;2023-08-07T08:33:04;6.03;;;2.00;;
70078;SDS011;57451;52.496;13.456;2023-08-07T08:35:32;5.25;;;2.40;;
70078;SDS011;57451;52.496;13.456;2023-08-07T08:37:59;5.53;;;2.37;;
70078;SDS011;57451;52.496;13.456;2023-08-07T08:40:27;4.53;;;2.28;;
70078;SDS011;57451;52.496;13.456;2023-08-07T08:42:55;4.82;;;2.40;;
70078;SDS011;57451;52.496;13.456;2023-08-07T08:45:26;6.03;;;2.55;;
70078;SDS011;57451;52.496;13.456;2023-08-07T08:47:54;6.95;;;2.50;;
70078;SDS011;57451;52.496;13.456;2023-08-07T08:50:26;5.80;;;2.13;;
70078;SDS011;57451;52.496;13.456;2023-08-07T08:52:53;4.53;;;2.50;;
70078;SDS011;57451;52.496;13.456;2023-08-07T08:55:23;5.55;;;2.65;;
70078;SDS011;57451;52.496;13.456;2023-08-07T08:57:50;5.70;;;2.25;;
70078;SDS011;57451;52.496;13.456;2023-08-07T09:00:20;6.22;;;2.22;;
70078;SDS011;57451;52.496;13.456;2023-08-07T09:02:50;4.27;;;2.03;;
70078;SDS011;57451;52.496;13.456;2023-08-07T09:05:19;5.13;;;1.83;;
70078;SDS011;57451;52.496;13.456;2023-08-07T09:07:48;5.15;;;2.10;;
70078;SDS011;57451;52.496;13.456;2023-08-07T09:10:16;5.38;;;2.17;;
70078;SDS011;57451;52.496;13.456;2023-08-07T09:12:49;5.85;;;2.17;;
70078;SDS011;57451;52.496;13.456;2023-08-07T09:15:23;5.37;;;1.97;;
70078;SDS011;57451;52.496;13.456;2023-08-07T09:17:52;5.78;;;1.80;;
70078;SDS011;57451;52.496;13.456;2023-08-07T09:20:22;3.70;;;1.63;;
70078;SDS011;57451;52.496;13.456;2023-08-07T09:22:51;5.35;;;1.90;;
70078;SDS011;57451;52.496;13.456;2023-08-07T09:25:26;6.97;;;2.28;;
70078;SDS011;57451;52.496;13.456;2023-08-07T09:27:55;5.57;;;2.10;;
70078;SDS011;57451;52.496;13.456;2023-08-07T09:30:26;5.25;;;1.98;;
70078;SDS011;57451;52.496;13.456;2023-08-07T09:32:56;5.25;;;2.00;;
70078;SDS011;57451;52.496;13.456;2023-08-07T09:35:23;4.68;;;2.13;;
70078;SDS011;57451;52.496;13.456;2023-08-07T09:37:52;5.95;;;2.10;;
70078;SDS011;57451;52.496;13.456;2023-08-07T09:40:20;7.53;;;2.47;;
70078;SDS011;57451;52.496;13.456;2023-08-07T09:42:49;3.88;;;2.08;;
70078;SDS011;57451;52.496;13.456;2023-08-07T09:45:19;4.93;;;2.20;;
70078;SDS011;57451;52.496;13.456;2023-08-07T09:47:56;4.82;;;2.00;;
70078;SDS011;57451;52.496;13.456;2023-08-07T09:50:24;6.03;;;2.10;;
70078;SDS011;57451;52.496;13.456;2023-08-07T09:52:54;4.67;;;2.00;;
70078;SDS011;57451;52.496;13.456;2023-08-07T09:55:23;3.78;;;1.88;;
70078;SDS011;57451;52.496;13.456;2023-08-07T09:57:50;4.45;;;1.90;;
70078;SDS011;57451;52.496;13.456;2023-08-07T10:00:18;4.32;;;2.00;;
70078;SDS011;57451;52.496;13.456;2023-08-07T10:02:47;5.75;;;1.98;;
70078;SDS011;57451;52.496;13.456;2023-08-07T10:05:16;4.80;;;1.93;;
70078;SDS011;57451;52.496;13.456;2023-08-07T10:07:44;6.13;;;2.00;;
70078;SDS011;57451;52.496;13.456;2023-08-07T10:10:15;4.28;;;1.90;;
70078;SDS011;57451;52.496;13.456;2023-08-07T10:12:42;3.67;;;1.50;;
70078;SDS011;57451;52.496;13.456;2023-08-07T10:15:13;4.20;;;1.60;;
70078;SDS011;57451;52.496;13.456;2023-08-07T10:17:41;6.77;;;1.73;;
70078;SDS011;57451;52.496;13.456;2023-08-07T10:20:11;5.60;;;1.80;;
70078;SDS011;57451;52.496;13.456;2023-08-07T10:22:39;4.55;;;1.52;;
70078;SDS011;57451;52.496;13.456;2023-08-07T10:25:07;5.60;;;1.90;;
70078;SDS011;57451;52.496;13.456;2023-08-07T10:27:37;3.63;;;1.50;;
70078;SDS011;57451;52.496;13.456;2023-08-07T10:30:07;4.20;;;1.50;;
70078;SDS011;57451;52.496;13.456;2023-08-07T10:32:40;4.50;;;1.90;;
70078;SDS011;57451;52.496;13.456;2023-08-07T10:35:09;3.85;;;1.45;;
70078;SDS011;57451;52.496;13.456;2023-08-07T10:37:39;4.28;;;1.60;;
70078;SDS011;57451;52.496;13.456;2023-08-07T10:40:08;4.90;;;1.75;;
70078;SDS011;57451;52.496;13.456;2023-08-07T10:42:56;4.33;;;1.50;;
70078;SDS011;57451;52.496;13.456;2023-08-07T10:45:25;3.92;;;1.70;;
70078;SDS011;57451;52.496;13.456;2023-08-07T10:47:57;3.58;;;1.50;;
70078;SDS011;57451;52.496;13.456;2023-08-07T10:50:28;4.13;;;1.50;;
70078;SDS011;57451;52.496;13.456;2023-08-07T10:52:59;3.58;;;1.50;;
70078;SDS011;57451;52.496;13.456;2023-08-07T10:55:30;4.50;;;1.50;;
70078;SDS011;57451;52.496;13.456;2023-08-07T10:58:00;4.38;;;1.58;;
70078;SDS011;57451;52.496;13.456;2023-08-07T11:00:27;5.55;;;1.67;;
70078;SDS011;57451;52.496;13.456;2023-08-07T11:02:57;4.03;;;1.60;;
70078;SDS011;57451;52.496;13.456;2023-08-07T11:05:26;4.60;;;1.83;;
70078;SDS011;57451;52.496;13.456;2023-08-07T11:07:54;5.27;;;1.50;;
70078;SDS011;57451;52.496;13.456;2023-08-07T11:10:21;4.18;;;1.45;;
70078;SDS011;57451;52.496;13.456;2023-08-07T11:12:49;4.50;;;1.48;;
70078;SDS011;57451;52.496;13.456;2023-08-07T11:15:17;7.05;;;1.77;;
70078;SDS011;57451;52.496;13.456;2023-08-07T11:17:45;5.07;;;1.60;;
70078;SDS011;57451;52.496;13.456;2023-08-07T11:20:13;5.10;;;1.70;;
70078;SDS011;57451;52.496;13.456;2023-08-07T11:22:41;4.57;;;1.60;;
70078;SDS011;57451;52.496;13.456;2023-08-07T11:25:09;3.97;;;1.90;;
70078;SDS011;57451;52.496;13.456;2023-08-07T11:27:38;4.82;;;1.88;;
70078;SDS011;57451;52.496;13.456;2023-08-07T11:30:06;4.05;;;1.80;;
70078;SDS011;57451;52.496;13.456;2023-08-07T11:32:39;5.97;;;1.83;;
70078;SDS011;57451;52.496;13.456;2023-08-07T11:35:07;4.78;;;1.88;;
70078;SDS011;57451;52.496;13.456;2023-08-07T11:37:35;4.70;;;1.90;;
70078;SDS011;57451;52.496;13.456;2023-08-07T11:40:02;5.65;;;2.00;;
70078;SDS011;57451;52.496;13.456;2023-08-07T11:42:30;4.80;;;2.10;;
70078;SDS011;57451;52.496;13.456;2023-08-07T11:44:57;6.00;;;2.27;;
70078;SDS011;57451;52.496;13.456;2023-08-07T11:47:25;5.60;;;2.00;;
70078;SDS011;57451;52.496;13.456;2023-08-07T11:49:55;4.93;;;2.03;;
70078;SDS011;57451;52.496;13.456;2023-08-07T11:52:22;6.28;;;1.98;;
70078;SDS011;57451;52.496;13.456;2023-08-07T11:54:52;5.85;;;2.03;;
70078;SDS011;57451;52.496;13.456;2023-08-07T11:57:19;5.70;;;2.00;;
70078;SDS011;57451;52.496;13.456;2023-08-07T11:59:48;5.28;;;2.00;;
70078;SDS011;57451;52.496;13.456;2023-08-07T12:02:16;4.10;;;1.80;;
70078;SDS011;57451;52.496;13.456;2023-08-07T12:04:48;4.72;;;1.70;;
70078;SDS011;57451;52.496;13.456;2023-08-07T12:07:18;7.22;;;1.75;;
70078;SDS011;57451;52.496;13.456;2023-08-07T12:09:47;6.03;;;1.90;;
70078;SDS011;57451;52.496;13.456;2023-08-07T12:12:14;5.10;;;1.88;;
70078;SDS011;57451;52.496;13.456;2023-08-07T12:14:42;5.45;;;1.80;;
70078;SDS011;57451;52.496;13.456;2023-08-07T12:17:09;5.20;;;2.00;;
70078;SDS011;57451;52.496;13.456;2023-08-07T12:19:37;5.20;;;2.00;;
70078;SDS011;57451;52.496;13.456;2023-08-07T12:22:05;4.70;;;2.03;;
70078;SDS011;57451;52.496;13.456;2023-08-07T12:24:36;4.55;;;2.00;;
70078;SDS011;57451;52.496;13.456;2023-08-07T12:27:04;4.45;;;1.70;;
70078;SDS011;57451;52.496;13.456;2023-08-07T12:29:32;5.75;;;2.03;;
70078;SDS011;57451;52.496;13.456;2023-08-07T12:31:59;4.63;;;2.00;;
70078;SDS011;57451;52.496;13.456;2023-08-07T12:34:28;6.27;;;2.10;;
70078;SDS011;57451;52.496;13.456;2023-08-07T12:36:58;5.50;;;2.10;;
70078;SDS011;57451;52.496;13.456;2023-08-07T12:39:26;5.97;;;2.15;;
70078;SDS011;57451;52.496;13.456;2023-08-07T12:41:57;6.70;;;2.05;;
70078;SDS011;57451;52.496;13.456;2023-08-07T12:44:28;6.63;;;2.03;;
70078;SDS011;57451;52.496;13.456;2023-08-07T12:46:55;5.37;;;2.00;;
70078;SDS011;57451;52.496;13.456;2023-08-07T12:49:24;4.47;;;2.08;;
70078;SDS011;57451;52.496;13.456;2023-08-07T12:51:52;4.95;;;1.98;;
70078;SDS011;57451;52.496;13.456;2023-08-07T12:54:20;5.80;;;2.00;;
70078;SDS011;57451;52.496;13.456;2023-08-07T12:56:48;6.40;;;1.80;;
70078;SDS011;57451;52.496;13.456;2023-08-07T12:59:17;6.10;;;1.87;;
70078;SDS011;57451;52.496;13.456;2023-08-07T13:01:44;6.07;;;1.90;;
70078;SDS011;57451;52.496;13.456;2023-08-07T13:04:12;6.50;;;1.70;;
70078;SDS011;57451;52.496;13.456;2023-08-07T13:06:41;7.70;;;2.28;;
70078;SDS011;57451;52.496;13.456;2023-08-07T13:09:09;5.85;;;2.05;;
70078;SDS011;57451;52.496;13.456;2023-08-07T13:11:36;6.70;;;2.40;;
70078;SDS011;57451;52.496;13.456;2023-08-07T13:14:04;6.03;;;2.25;;
70078;SDS011;57451;52.496;13.456;2023-08-07T13:16:32;8.40;;;2.00;;
70078;SDS011;57451;52.496;13.456;2023-08-07T13:19:00;7.35;;;1.90;;
70078;SDS011;57451;52.496;13.456;2023-08-07T13:21:31;6.07;;;1.90;;
70078;SDS011;57451;52.496;13.456;2023-08-07T13:23:58;7.10;;;2.20;;
70078;SDS011;57451;52.496;13.456;2023-08-07T13:26:25;5.85;;;1.83;;
70078;SDS011;57451;52.496;13.456;2023-08-07T13:28:53;7.18;;;1.90;;
70078;SDS011;57451;52.496;13.456;2023-08-07T13:31:20;6.07;;;1.95;;
70078;SDS011;57451;52.496;13.456;2023-08-07T13:33:49;5.55;;;1.80;;
70078;SDS011;57451;52.496;13.456;2023-08-07T13:36:17;5.83;;;1.90;;
70078;SDS011;57451;52.496;13.456;2023-08-07T13:38:44;5.43;;;1.60;;
70078;SDS011;57451;52.496;13.456;2023-08-07T13:41:13;4.70;;;1.70;;
70078;SDS011;57451;52.496;13.456;2023-08-07T13:43:40;5.90;;;1.90;;
70078;SDS011;57451;52.496;13.456;2023-08-07T13:46:08;7.35;;;1.98;;
70078;SDS011;57451;52.496;13.456;2023-08-07T13:48:35;5.80;;;2.07;;
70078;SDS011;57451;52.496;13.456;2023-08-07T13:51:04;7.38;;;1.60;;
70078;SDS011;57451;52.496;13.456;2023-08-07T13:53:33;7.47;;;1.70;;
70078;SDS011;57451;52.496;13.456;2023-08-07T13:56:01;5.68;;;1.77;;
70078;SDS011;57451;52.496;13.456;2023-08-07T13:58:28;6.28;;;1.80;;
70078;SDS011;57451;52.496;13.456;2023-08-07T14:00:56;6.57;;;1.63;;
70078;SDS011;57451;52.496;13.456;2023-08-07T14:03:24;9.50;;;2.10;;
70078;SDS011;57451;52.496;13.456;2023-08-07T14:05:52;6.60;;;1.77;;
70078;SDS011;57451;52.496;13.456;2023-08-07T14:08:20;6.93;;;1.88;;
70078;SDS011;57451;52.496;13.456;2023-08-07T14:10:48;4.88;;;1.63;;
70078;SDS011;57451;52.496;13.456;2023-08-07T14:13:15;5.13;;;2.00;;
70078;SDS011;57451;52.496;13.456;2023-08-07T14:15:43;5.68;;;1.70;;
70078;SDS011;57451;52.496;13.456;2023-08-07T14:18:10;8.15;;;1.95;;
70078;SDS011;57451;52.496;13.456;2023-08-07T14:20:40;6.72;;;1.85;;
70078;SDS011;57451;52.496;13.456;2023-08-07T14:23:28;5.97;;;2.10;;
70078;SDS011;57451;52.496;13.456;2023-08-07T14:25:59;6.00;;;1.90;;
70078;SDS011;57451;52.496;13.456;2023-08-07T14:28:27;5.57;;;1.92;;
70078;SDS011;57451;52.496;13.456;2023-08-07T14:30:56;5.35;;;1.80;;
70078;SDS011;57451;52.496;13.456;2023-08-07T14:33:25;5.75;;;2.30;;
70078;SDS011;57451;52.496;13.456;2023-08-07T14:35:52;7.43;;;2.03;;
70078;SDS011;57451;52.496;13.456;2023-08-07T14:38:20;6.70;;;2.00;;
70078;SDS011;57451;52.496;13.456;2023-08-07T14:40:48;5.80;;;1.70;;